sensor_id;sensor_type;location;lat;lon;timestamp;temperature;humidity
15969;DHT22;8085;53.472;9.794;2023-09-19T00:00:56;16.80;99.90
15969;DHT22;8085;53.472;9.794;2023-09-19T00:03:23;16.80;99.90
15969;DHT22;8085;53.472;9.794;2023-09-19T00:05:52;16.80;99.90
15969;DHT22;8085;53.472;9.794;2023-09-19T00:08:21;16.80;99.90
15969;DHT22;8085;53.472;9.794;2023-09-19T00:10:50;16.80;99.90
15969;DHT22;8085;53.472;9.794;2023-09-19T00:13:19;16.80;99.90
15969;DHT22;8085;53.472;9.794;2023-09-19T00:15:47;16.80;99.90
15969;DHT22;8085;53.472;9.794;2023-09-19T00:18:15;16.80;99.90
15969;DHT22;8085;53.472;9.794;2023-09-19T00:20:42;16.80;99.90
15969;DHT22;8085;53.472;9.794;2023-09-19T00:23:14;16.80;99.90
15969;DHT22;8085;53.472;9.794;2023-09-19T00:25:41;16.80;99.90
15969;DHT22;8085;53.472;9.794;2023-09-19T00:28:08;16.90;99.90
15969;DHT22;8085;53.472;9.794;2023-09-19T00:30:35;16.80;99.90
15969;DHT22;8085;53.472;9.794;2023-09-19T00:33:05;16.90;99.90
15969;DHT22;8085;53.472;9.794;2023-09-19T00:35:33;16.90;99.90
15969;DHT22;8085;53.472;9.794;2023-09-19T00:38:00;16.90;99.90
15969;DHT22;8085;53.472;9.794;2023-09-19T00:40:28;16.90;99.90
15969;DHT22;8085;53.472;9.794;2023-09-19T00:42:57;16.90;99.90
15969;DHT22;8085;53.472;9.794;2023-09-19T00:45:25;17.00;99.90
15969;DHT22;8085;53.472;9.794;2023-09-19T00:47:52;17.00;99.90
15969;DHT22;8085;53.472;9.794;2023-09-19T00:50:22;17.00;99.90
15969;DHT22;8085;53.472;9.794;2023-09-19T00:52:53;17.00;99.90
15969;DHT22;8085;53.472;9.794;2023-09-19T00:55:21;17.00;99.90
15969;DHT22;8085;53.472;9.794;2023-09-19T00:57:52;17.10;99.90
15969;DHT22;8085;53.472;9.794;2023-09-19T01:00:20;17.10;99.90
15969;DHT22;8085;53.472;9.794;2023-09-19T01:02:47;17.10;99.90
15969;DHT22;8085;53.472;9.794;2023-09-19T01:05:14;17.00;99.90
15969;DHT22;8085;53.472;9.794;2023-09-19T01:07:41;17.00;99.90
15969;DHT22;8085;53.472;9.794;2023-09-19T01:10:12;17.10;99.90
15969;DHT22;8085;53.472;9.794;2023-09-19T01:12:45;17.10;99.90
15969;DHT22;8085;53.472;9.794;2023-09-19T01:15:21;17.10;99.90
15969;DHT22;8085;53.472;9.794;2023-09-19T01:17:57;17.10;99.90
15969;DHT22;8085;53.472;9.794;2023-09-19T01:20:35;17.00;99.90
15969;DHT22;8085;53.472;9.794;2023-09-19T01:23:11;17.00;99.90
15969;DHT22;8085;53.472;9.794;2023-09-19T01:26:04;17.00;99.90
15969;DHT22;8085;53.472;9.794;2023-09-19T01:28:43;17.00;99.90
15969;DHT22;8085;53.472;9.794;2023-09-19T01:31:15;16.90;99.90
15969;DHT22;8085;53.472;9.794;2023-09-19T01:33:55;16.90;99.90
15969;DHT22;8085;53.472;9.794;2023-09-19T01:36:31;16.90;99.90
15969;DHT22;8085;53.472;9.794;2023-09-19T01:39:01;16.90;99.90
15969;DHT22;8085;53.472;9.794;2023-09-19T01:41:58;16.80;99.90
15969;DHT22;8085;53.472;9.794;2023-09-19T01:44:36;16.70;99.90
15969;DHT22;8085;53.472;9.794;2023-09-19T01:47:16;16.70;99.90
15969;DHT22;8085;53.472;9.794;2023-09-19T01:49:50;16.70;99.90
15969;DHT22;8085;53.472;9.794;2023-09-19T01:52:28;16.60;99.90
15969;DHT22;8085;53.472;9.794;2023-09-19T01:55:01;16.70;99.90
15969;DHT22;8085;53.472;9.794;2023-09-19T01:57:35;16.60;99.90
15969;DHT22;8085;53.472;9.794;2023-09-19T02:00:10;16.60;99.90
15969;DHT22;8085;53.472;9.794;2023-09-19T02:02:42;16.60;99.90
15969;DHT22;8085;53.472;9.794;2023-09-19T02:05:11;16.60;99.90
15969;DHT22;8085;53.472;9.794;2023-09-19T02:07:38;16.50;99.90
15969;DHT22;8085;53.472;9.794;2023-09-19T02:10:07;16.50;99.90
15969;DHT22;8085;53.472;9.794;2023-09-19T02:12:35;16.50;99.90
15969;DHT22;8085;53.472;9.794;2023-09-19T02:15:04;16.50;99.90
15969;DHT22;8085;53.472;9.794;2023-09-19T02:17:32;16.40;99.90
15969;DHT22;8085;53.472;9.794;2023-09-19T02:20:00;16.40;99.90
15969;DHT22;8085;53.472;9.794;2023-09-19T02:22:27;16.40;99.90
15969;DHT22;8085;53.472;9.794;2023-09-19T02:24:55;16.40;99.90
15969;DHT22;8085;53.472;9.794;2023-09-19T02:27:24;16.40;99.90
15969;DHT22;8085;53.472;9.794;2023-09-19T02:29:51;16.30;99.90
15969;DHT22;8085;53.472;9.794;2023-09-19T02:32:18;16.30;99.90
15969;DHT22;8085;53.472;9.794;2023-09-19T02:34:45;16.40;99.90
15969;DHT22;8085;53.472;9.794;2023-09-19T02:37:13;16.30;99.90
15969;DHT22;8085;53.472;9.794;2023-09-19T02:39:45;16.30;99.90
15969;DHT22;8085;53.472;9.794;2023-09-19T02:42:12;16.30;99.90
15969;DHT22;8085;53.472;9.794;2023-09-19T02:44:39;16.30;99.90
15969;DHT22;8085;53.472;9.794;2023-09-19T02:47:06;16.30;99.90
15969;DHT22;8085;53.472;9.794;2023-09-19T02:49:33;16.30;99.90
15969;DHT22;8085;53.472;9.794;2023-09-19T02:52:00;16.30;99.90
15969;DHT22;8085;53.472;9.794;2023-09-19T02:54:30;16.30;99.90
15969;DHT22;8085;53.472;9.794;2023-09-19T02:56:57;16.30;99.90
15969;DHT22;8085;53.472;9.794;2023-09-19T02:59:24;16.30;99.90
15969;DHT22;8085;53.472;9.794;2023-09-19T03:01:51;16.30;99.90
15969;DHT22;8085;53.472;9.794;2023-09-19T03:04:20;16.30;99.90
15969;DHT22;8085;53.472;9.794;2023-09-19T03:06:47;16.30;99.90
15969;DHT22;8085;53.472;9.794;2023-09-19T03:09:16;16.30;99.90
15969;DHT22;8085;53.472;9.794;2023-09-19T03:11:46;16.40;99.90
15969;DHT22;8085;53.472;9.794;2023-09-19T03:14:13;16.30;99.90
15969;DHT22;8085;53.472;9.794;2023-09-19T03:16:41;16.30;99.90
15969;DHT22;8085;53.472;9.794;2023-09-19T03:19:10;16.30;99.90
15969;DHT22;8085;53.472;9.794;2023-09-19T03:21:37;16.30;99.90
15969;DHT22;8085;53.472;9.794;2023-09-19T03:24:05;16.30;99.90
15969;DHT22;8085;53.472;9.794;2023-09-19T03:26:32;16.30;99.90
15969;DHT22;8085;53.472;9.794;2023-09-19T03:29:03;16.20;99.90
15969;DHT22;8085;53.472;9.794;2023-09-19T03:31:32;16.20;99.90
15969;DHT22;8085;53.472;9.794;2023-09-19T03:33:59;16.20;99.90
15969;DHT22;8085;53.472;9.794;2023-09-19T03:36:25;16.10;99.90
15969;DHT22;8085;53.472;9.794;2023-09-19T03:38:53;16.10;99.90
15969;DHT22;8085;53.472;9.794;2023-09-19T03:41:20;16.00;99.90
15969;DHT22;8085;53.472;9.794;2023-09-19T03:43:47;16.00;99.90
15969;DHT22;8085;53.472;9.794;2023-09-19T03:46:16;15.90;99.90
15969;DHT22;8085;53.472;9.794;2023-09-19T03:48:43;15.90;99.50
15969;DHT22;8085;53.472;9.794;2023-09-19T03:51:10;15.80;99.00
15969;DHT22;8085;53.472;9.794;2023-09-19T03:53:37;15.70;98.90
15969;DHT22;8085;53.472;9.794;2023-09-19T03:56:04;15.70;98.90
15969;DHT22;8085;53.472;9.794;2023-09-19T03:58:31;15.70;98.40
15969;DHT22;8085;53.472;9.794;2023-09-19T04:00:59;15.70;98.20
15969;DHT22;8085;53.472;9.794;2023-09-19T04:03:28;15.50;98.10
15969;DHT22;8085;53.472;9.794;2023-09-19T04:06:00;15.50;97.80
15969;DHT22;8085;53.472;9.794;2023-09-19T04:08:28;15.50;97.50
15969;DHT22;8085;53.472;9.794;2023-09-19T04:10:55;15.30;97.70
15969;DHT22;8085;53.472;9.794;2023-09-19T04:13:22;15.30;97.40
15969;DHT22;8085;53.472;9.794;2023-09-19T04:15:49;15.30;97.50
15969;DHT22;8085;53.472;9.794;2023-09-19T04:18:16;15.30;97.60
15969;DHT22;8085;53.472;9.794;2023-09-19T04:20:49;15.20;97.60
15969;DHT22;8085;53.472;9.794;2023-09-19T04:23:16;15.10;97.50
15969;DHT22;8085;53.472;9.794;2023-09-19T04:25:45;15.10;97.60
15969;DHT22;8085;53.472;9.794;2023-09-19T04:28:12;15.10;97.70
15969;DHT22;8085;53.472;9.794;2023-09-19T04:30:39;15.10;97.90
15969;DHT22;8085;53.472;9.794;2023-09-19T04:33:06;14.90;97.80
15969;DHT22;8085;53.472;9.794;2023-09-19T04:35:33;15.00;97.90
15969;DHT22;8085;53.472;9.794;2023-09-19T04:38:02;14.90;97.90
15969;DHT22;8085;53.472;9.794;2023-09-19T04:40:31;15.00;98.00
15969;DHT22;8085;53.472;9.794;2023-09-19T04:42:59;14.90;98.10
15969;DHT22;8085;53.472;9.794;2023-09-19T04:45:27;14.90;98.10
15969;DHT22;8085;53.472;9.794;2023-09-19T04:47:54;14.90;98.20
15969;DHT22;8085;53.472;9.794;2023-09-19T04:50:22;14.90;98.40
15969;DHT22;8085;53.472;9.794;2023-09-19T04:52:50;14.80;98.50
15969;DHT22;8085;53.472;9.794;2023-09-19T04:55:18;14.80;98.70
15969;DHT22;8085;53.472;9.794;2023-09-19T04:57:47;14.80;98.90
15969;DHT22;8085;53.472;9.794;2023-09-19T05:00:15;14.80;99.10
15969;DHT22;8085;53.472;9.794;2023-09-19T05:02:43;14.80;99.10
15969;DHT22;8085;53.472;9.794;2023-09-19T05:05:10;14.80;99.30
15969;DHT22;8085;53.472;9.794;2023-09-19T05:07:41;14.70;99.30
15969;DHT22;8085;53.472;9.794;2023-09-19T05:10:10;14.70;99.40
15969;DHT22;8085;53.472;9.794;2023-09-19T05:12:38;14.70;99.60
15969;DHT22;8085;53.472;9.794;2023-09-19T05:15:07;14.70;99.50
15969;DHT22;8085;53.472;9.794;2023-09-19T05:17:34;14.60;99.60
15969;DHT22;8085;53.472;9.794;2023-09-19T05:20:02;14.60;99.50
15969;DHT22;8085;53.472;9.794;2023-09-19T05:22:32;14.60;99.50
15969;DHT22;8085;53.472;9.794;2023-09-19T05:24:59;14.60;99.60
15969;DHT22;8085;53.472;9.794;2023-09-19T05:27:30;14.70;99.50
15969;DHT22;8085;53.472;9.794;2023-09-19T05:29:58;14.60;99.40
15969;DHT22;8085;53.472;9.794;2023-09-19T05:32:25;14.50;99.40
15969;DHT22;8085;53.472;9.794;2023-09-19T05:34:52;14.60;99.50
15969;DHT22;8085;53.472;9.794;2023-09-19T05:37:23;14.50;99.40
15969;DHT22;8085;53.472;9.794;2023-09-19T05:39:51;14.50;99.30
15969;DHT22;8085;53.472;9.794;2023-09-19T05:42:19;14.50;99.40
15969;DHT22;8085;53.472;9.794;2023-09-19T05:44:46;14.60;99.40
15969;DHT22;8085;53.472;9.794;2023-09-19T05:47:14;14.40;99.40
15969;DHT22;8085;53.472;9.794;2023-09-19T05:49:41;14.50;99.50
15969;DHT22;8085;53.472;9.794;2023-09-19T05:52:08;14.50;99.60
15969;DHT22;8085;53.472;9.794;2023-09-19T05:54:35;14.50;99.70
15969;DHT22;8085;53.472;9.794;2023-09-19T05:57:03;14.60;99.80
15969;DHT22;8085;53.472;9.794;2023-09-19T05:59:30;14.50;99.90
15969;DHT22;8085;53.472;9.794;2023-09-19T06:01:59;14.60;99.90
15969;DHT22;8085;53.472;9.794;2023-09-19T06:04:27;14.60;99.90
15969;DHT22;8085;53.472;9.794;2023-09-19T06:06:56;14.70;99.90
15969;DHT22;8085;53.472;9.794;2023-09-19T06:09:23;14.70;99.60
15969;DHT22;8085;53.472;9.794;2023-09-19T06:11:53;14.70;99.70
15969;DHT22;8085;53.472;9.794;2023-09-19T06:14:21;14.80;99.80
15969;DHT22;8085;53.472;9.794;2023-09-19T06:16:50;14.90;99.50
15969;DHT22;8085;53.472;9.794;2023-09-19T06:19:19;14.90;99.70
15969;DHT22;8085;53.472;9.794;2023-09-19T06:21:49;14.90;99.30
15969;DHT22;8085;53.472;9.794;2023-09-19T06:24:16;14.90;99.20
15969;DHT22;8085;53.472;9.794;2023-09-19T06:26:44;15.00;99.10
15969;DHT22;8085;53.472;9.794;2023-09-19T06:29:13;15.10;99.00
15969;DHT22;8085;53.472;9.794;2023-09-19T06:31:40;15.10;99.00
15969;DHT22;8085;53.472;9.794;2023-09-19T06:34:07;15.10;98.80
15969;DHT22;8085;53.472;9.794;2023-09-19T06:36:34;15.20;98.90
15969;DHT22;8085;53.472;9.794;2023-09-19T06:39:03;15.20;98.60
15969;DHT22;8085;53.472;9.794;2023-09-19T06:41:32;15.20;98.60
15969;DHT22;8085;53.472;9.794;2023-09-19T06:43:59;15.20;98.60
15969;DHT22;8085;53.472;9.794;2023-09-19T06:46:26;15.20;98.70
15969;DHT22;8085;53.472;9.794;2023-09-19T06:48:58;15.30;98.70
15969;DHT22;8085;53.472;9.794;2023-09-19T06:51:26;15.30;98.70
15969;DHT22;8085;53.472;9.794;2023-09-19T06:53:53;15.40;98.40
15969;DHT22;8085;53.472;9.794;2023-09-19T06:56:21;15.40;98.60
15969;DHT22;8085;53.472;9.794;2023-09-19T06:58:50;15.50;98.50
15969;DHT22;8085;53.472;9.794;2023-09-19T07:01:17;15.50;98.30
15969;DHT22;8085;53.472;9.794;2023-09-19T07:03:44;15.60;98.00
15969;DHT22;8085;53.472;9.794;2023-09-19T07:06:13;15.50;97.80
15969;DHT22;8085;53.472;9.794;2023-09-19T07:08:40;15.60;97.60
15969;DHT22;8085;53.472;9.794;2023-09-19T07:11:07;15.60;97.60
15969;DHT22;8085;53.472;9.794;2023-09-19T07:13:41;15.60;97.60
15969;DHT22;8085;53.472;9.794;2023-09-19T07:16:09;15.60;97.60
15969;DHT22;8085;53.472;9.794;2023-09-19T07:18:52;15.70;97.30
15969;DHT22;8085;53.472;9.794;2023-09-19T07:21:20;15.60;97.40
15969;DHT22;8085;53.472;9.794;2023-09-19T07:23:47;15.70;97.20
15969;DHT22;8085;53.472;9.794;2023-09-19T07:26:15;15.70;96.90
15969;DHT22;8085;53.472;9.794;2023-09-19T07:28:43;15.80;97.00
15969;DHT22;8085;53.472;9.794;2023-09-19T07:31:10;15.80;96.80
15969;DHT22;8085;53.472;9.794;2023-09-19T07:33:41;15.80;96.80
15969;DHT22;8085;53.472;9.794;2023-09-19T07:36:12;15.80;96.70
15969;DHT22;8085;53.472;9.794;2023-09-19T07:38:40;15.80;96.60
15969;DHT22;8085;53.472;9.794;2023-09-19T07:41:15;15.80;96.70
15969;DHT22;8085;53.472;9.794;2023-09-19T07:43:44;15.90;96.60
15969;DHT22;8085;53.472;9.794;2023-09-19T07:46:11;15.90;96.10
15969;DHT22;8085;53.472;9.794;2023-09-19T07:48:38;15.80;96.40
15969;DHT22;8085;53.472;9.794;2023-09-19T07:51:08;15.80;97.30
15969;DHT22;8085;53.472;9.794;2023-09-19T07:53:37;15.80;96.90
15969;DHT22;8085;53.472;9.794;2023-09-19T07:56:05;15.70;97.30
15969;DHT22;8085;53.472;9.794;2023-09-19T07:58:32;15.70;96.90
15969;DHT22;8085;53.472;9.794;2023-09-19T08:01:06;15.70;96.60
15969;DHT22;8085;53.472;9.794;2023-09-19T08:03:38;15.80;96.30
15969;DHT22;8085;53.472;9.794;2023-09-19T08:06:11;15.80;95.60
15969;DHT22;8085;53.472;9.794;2023-09-19T08:08:40;15.80;95.40
15969;DHT22;8085;53.472;9.794;2023-09-19T08:11:07;15.80;95.70
15969;DHT22;8085;53.472;9.794;2023-09-19T08:13:37;15.90;95.50
15969;DHT22;8085;53.472;9.794;2023-09-19T08:16:08;15.90;95.50
15969;DHT22;8085;53.472;9.794;2023-09-19T08:18:35;15.90;95.30
15969;DHT22;8085;53.472;9.794;2023-09-19T08:21:03;15.90;95.50
15969;DHT22;8085;53.472;9.794;2023-09-19T08:23:33;15.90;95.40
15969;DHT22;8085;53.472;9.794;2023-09-19T08:26:00;16.00;94.90
15969;DHT22;8085;53.472;9.794;2023-09-19T08:28:32;16.00;95.40
15969;DHT22;8085;53.472;9.794;2023-09-19T08:31:02;16.00;95.50
15969;DHT22;8085;53.472;9.794;2023-09-19T08:33:33;16.00;95.30
15969;DHT22;8085;53.472;9.794;2023-09-19T08:36:01;16.00;95.00
15969;DHT22;8085;53.472;9.794;2023-09-19T08:38:31;16.00;94.60
15969;DHT22;8085;53.472;9.794;2023-09-19T08:40:59;16.00;94.70
15969;DHT22;8085;53.472;9.794;2023-09-19T08:43:26;16.00;94.30
15969;DHT22;8085;53.472;9.794;2023-09-19T08:45:58;16.10;94.50
15969;DHT22;8085;53.472;9.794;2023-09-19T08:48:26;16.00;94.10
15969;DHT22;8085;53.472;9.794;2023-09-19T08:51:01;16.20;93.20
15969;DHT22;8085;53.472;9.794;2023-09-19T08:53:36;16.20;93.70
15969;DHT22;8085;53.472;9.794;2023-09-19T08:56:10;16.30;93.20
15969;DHT22;8085;53.472;9.794;2023-09-19T08:58:44;16.30;92.90
15969;DHT22;8085;53.472;9.794;2023-09-19T09:01:15;16.40;92.20
15969;DHT22;8085;53.472;9.794;2023-09-19T09:03:43;16.40;91.90
15969;DHT22;8085;53.472;9.794;2023-09-19T09:06:16;16.50;92.00
15969;DHT22;8085;53.472;9.794;2023-09-19T09:08:44;16.50;91.50
15969;DHT22;8085;53.472;9.794;2023-09-19T09:11:12;16.50;91.10
15969;DHT22;8085;53.472;9.794;2023-09-19T09:13:40;16.60;91.20
15969;DHT22;8085;53.472;9.794;2023-09-19T09:16:10;16.70;90.80
15969;DHT22;8085;53.472;9.794;2023-09-19T09:18:38;16.60;91.00
15969;DHT22;8085;53.472;9.794;2023-09-19T09:21:05;16.70;90.80
15969;DHT22;8085;53.472;9.794;2023-09-19T09:23:34;16.70;90.70
15969;DHT22;8085;53.472;9.794;2023-09-19T09:26:01;16.80;90.40
15969;DHT22;8085;53.472;9.794;2023-09-19T09:28:31;16.90;89.20
15969;DHT22;8085;53.472;9.794;2023-09-19T09:30:59;17.00;90.00
15969;DHT22;8085;53.472;9.794;2023-09-19T09:33:28;17.10;88.20
15969;DHT22;8085;53.472;9.794;2023-09-19T09:35:57;17.20;86.70
15969;DHT22;8085;53.472;9.794;2023-09-19T09:38:27;17.20;85.30
15969;DHT22;8085;53.472;9.794;2023-09-19T09:40:59;17.30;83.70
15969;DHT22;8085;53.472;9.794;2023-09-19T09:43:33;17.30;83.40
15969;DHT22;8085;53.472;9.794;2023-09-19T09:46:13;17.40;83.50
15969;DHT22;8085;53.472;9.794;2023-09-19T09:49:00;17.50;82.80
15969;DHT22;8085;53.472;9.794;2023-09-19T09:51:58;17.60;82.30
15969;DHT22;8085;53.472;9.794;2023-09-19T09:54:27;17.70;80.20
15969;DHT22;8085;53.472;9.794;2023-09-19T09:57:02;17.70;79.60
15969;DHT22;8085;53.472;9.794;2023-09-19T09:59:46;17.80;79.00
15969;DHT22;8085;53.472;9.794;2023-09-19T10:02:15;17.90;76.20
15969;DHT22;8085;53.472;9.794;2023-09-19T10:04:48;17.90;76.70
15969;DHT22;8085;53.472;9.794;2023-09-19T10:07:34;18.00;77.90
15969;DHT22;8085;53.472;9.794;2023-09-19T10:10:08;18.10;74.20
15969;DHT22;8085;53.472;9.794;2023-09-19T10:12:45;18.10;73.00
15969;DHT22;8085;53.472;9.794;2023-09-19T10:15:18;18.00;74.80
15969;DHT22;8085;53.472;9.794;2023-09-19T10:17:48;18.00;74.20
15969;DHT22;8085;53.472;9.794;2023-09-19T10:20:16;18.00;74.10
15969;DHT22;8085;53.472;9.794;2023-09-19T10:23:04;18.00;74.00
15969;DHT22;8085;53.472;9.794;2023-09-19T10:25:38;18.00;72.00
15969;DHT22;8085;53.472;9.794;2023-09-19T10:28:08;18.10;71.90
15969;DHT22;8085;53.472;9.794;2023-09-19T10:30:38;18.10;71.30
15969;DHT22;8085;53.472;9.794;2023-09-19T10:33:11;18.10;71.00
15969;DHT22;8085;53.472;9.794;2023-09-19T10:35:41;18.10;72.30
15969;DHT22;8085;53.472;9.794;2023-09-19T10:38:10;18.10;72.50
15969;DHT22;8085;53.472;9.794;2023-09-19T10:40:38;18.10;71.80
15969;DHT22;8085;53.472;9.794;2023-09-19T10:43:12;18.20;70.90
15969;DHT22;8085;53.472;9.794;2023-09-19T10:45:41;18.10;71.50
15969;DHT22;8085;53.472;9.794;2023-09-19T10:48:10;18.00;70.90
15969;DHT22;8085;53.472;9.794;2023-09-19T10:50:44;18.10;71.10
15969;DHT22;8085;53.472;9.794;2023-09-19T10:53:13;18.10;70.30
15969;DHT22;8085;53.472;9.794;2023-09-19T10:55:41;18.10;71.10
15969;DHT22;8085;53.472;9.794;2023-09-19T10:58:26;18.10;70.70
15969;DHT22;8085;53.472;9.794;2023-09-19T11:00:55;18.00;69.70
15969;DHT22;8085;53.472;9.794;2023-09-19T11:03:23;18.10;70.00
15969;DHT22;8085;53.472;9.794;2023-09-19T11:06:04;18.10;70.40
15969;DHT22;8085;53.472;9.794;2023-09-19T11:08:58;18.30;70.90
15969;DHT22;8085;53.472;9.794;2023-09-19T11:11:43;18.30;69.60
15969;DHT22;8085;53.472;9.794;2023-09-19T11:14:29;18.40;68.10
15969;DHT22;8085;53.472;9.794;2023-09-19T11:17:29;18.60;67.00
15969;DHT22;8085;53.472;9.794;2023-09-19T11:20:19;18.50;66.00
15969;DHT22;8085;53.472;9.794;2023-09-19T11:23:20;18.40;66.10
15969;DHT22;8085;53.472;9.794;2023-09-19T11:25:49;18.30;66.50
15969;DHT22;8085;53.472;9.794;2023-09-19T11:28:31;18.30;67.00
15969;DHT22;8085;53.472;9.794;2023-09-19T11:34:44;18.30;66.90
15969;DHT22;8085;53.472;9.794;2023-09-19T11:40:45;18.40;67.30
15969;DHT22;8085;53.472;9.794;2023-09-19T11:43:32;18.50;68.00
15969;DHT22;8085;53.472;9.794;2023-09-19T11:46:06;18.60;68.10
15969;DHT22;8085;53.472;9.794;2023-09-19T11:48:35;18.70;67.70
15969;DHT22;8085;53.472;9.794;2023-09-19T11:51:17;18.80;67.00
15969;DHT22;8085;53.472;9.794;2023-09-19T11:53:50;18.80;66.70
15969;DHT22;8085;53.472;9.794;2023-09-19T11:56:18;18.90;67.20
15969;DHT22;8085;53.472;9.794;2023-09-19T11:58:46;18.90;66.90
15969;DHT22;8085;53.472;9.794;2023-09-19T12:01:22;19.00;65.30
15969;DHT22;8085;53.472;9.794;2023-09-19T12:03:53;19.00;64.70
15969;DHT22;8085;53.472;9.794;2023-09-19T12:06:23;19.10;65.80
15969;DHT22;8085;53.472;9.794;2023-09-19T12:08:50;19.20;64.40
15969;DHT22;8085;53.472;9.794;2023-09-19T12:11:20;19.10;64.60
15969;DHT22;8085;53.472;9.794;2023-09-19T12:13:51;19.10;65.10
15969;DHT22;8085;53.472;9.794;2023-09-19T12:16:20;19.20;64.40
15969;DHT22;8085;53.472;9.794;2023-09-19T12:18:49;19.30;63.20
15969;DHT22;8085;53.472;9.794;2023-09-19T12:21:37;19.30;62.50
15969;DHT22;8085;53.472;9.794;2023-09-19T12:24:06;19.40;63.40
15969;DHT22;8085;53.472;9.794;2023-09-19T12:26:41;19.50;63.30
15969;DHT22;8085;53.472;9.794;2023-09-19T12:29:13;19.50;64.20
15969;DHT22;8085;53.472;9.794;2023-09-19T12:31:55;19.60;62.30
15969;DHT22;8085;53.472;9.794;2023-09-19T12:34:24;19.50;61.50
15969;DHT22;8085;53.472;9.794;2023-09-19T12:37:06;19.40;60.00
15969;DHT22;8085;53.472;9.794;2023-09-19T12:39:41;19.40;60.30
15969;DHT22;8085;53.472;9.794;2023-09-19T12:42:10;19.40;59.80
15969;DHT22;8085;53.472;9.794;2023-09-19T12:44:41;19.40;60.30
15969;DHT22;8085;53.472;9.794;2023-09-19T12:47:14;19.40;60.10
15969;DHT22;8085;53.472;9.794;2023-09-19T12:50:08;19.40;60.80
15969;DHT22;8085;53.472;9.794;2023-09-19T12:52:39;19.50;59.70
15969;DHT22;8085;53.472;9.794;2023-09-19T12:55:07;19.40;60.60
15969;DHT22;8085;53.472;9.794;2023-09-19T12:57:35;19.50;59.60
15969;DHT22;8085;53.472;9.794;2023-09-19T13:00:02;19.60;58.80
15969;DHT22;8085;53.472;9.794;2023-09-19T13:02:32;19.60;59.10
15969;DHT22;8085;53.472;9.794;2023-09-19T13:04:59;19.60;59.70
15969;DHT22;8085;53.472;9.794;2023-09-19T13:07:42;19.60;60.50
15969;DHT22;8085;53.472;9.794;2023-09-19T13:10:11;19.60;60.30
15969;DHT22;8085;53.472;9.794;2023-09-19T13:12:41;19.70;61.50
15969;DHT22;8085;53.472;9.794;2023-09-19T13:15:11;19.80;59.40
15969;DHT22;8085;53.472;9.794;2023-09-19T13:17:44;19.90;59.10
15969;DHT22;8085;53.472;9.794;2023-09-19T13:20:21;19.90;57.50
15969;DHT22;8085;53.472;9.794;2023-09-19T13:22:53;20.00;57.80
15969;DHT22;8085;53.472;9.794;2023-09-19T13:25:24;20.20;57.00
15969;DHT22;8085;53.472;9.794;2023-09-19T13:27:52;20.30;57.30
15969;DHT22;8085;53.472;9.794;2023-09-19T13:30:22;20.50;55.30
15969;DHT22;8085;53.472;9.794;2023-09-19T13:32:52;20.60;55.50
15969;DHT22;8085;53.472;9.794;2023-09-19T13:35:19;20.60;54.80
15969;DHT22;8085;53.472;9.794;2023-09-19T13:37:47;20.60;55.70
15969;DHT22;8085;53.472;9.794;2023-09-19T13:40:15;20.60;55.30
15969;DHT22;8085;53.472;9.794;2023-09-19T13:42:42;20.60;54.70
15969;DHT22;8085;53.472;9.794;2023-09-19T13:45:09;20.60;54.70
15969;DHT22;8085;53.472;9.794;2023-09-19T13:47:37;20.70;55.30
15969;DHT22;8085;53.472;9.794;2023-09-19T13:50:07;20.80;55.80
15969;DHT22;8085;53.472;9.794;2023-09-19T13:52:34;20.80;55.90
15969;DHT22;8085;53.472;9.794;2023-09-19T13:55:01;20.80;54.70
15969;DHT22;8085;53.472;9.794;2023-09-19T13:57:28;20.90;55.00
15969;DHT22;8085;53.472;9.794;2023-09-19T13:59:55;20.90;55.60
15969;DHT22;8085;53.472;9.794;2023-09-19T14:02:22;20.90;53.90
15969;DHT22;8085;53.472;9.794;2023-09-19T14:04:50;20.90;54.20
15969;DHT22;8085;53.472;9.794;2023-09-19T14:07:18;20.80;54.70
15969;DHT22;8085;53.472;9.794;2023-09-19T14:09:45;20.70;54.20
15969;DHT22;8085;53.472;9.794;2023-09-19T14:12:13;20.60;54.70
15969;DHT22;8085;53.472;9.794;2023-09-19T14:14:40;20.60;55.00
15969;DHT22;8085;53.472;9.794;2023-09-19T14:17:07;20.60;55.60
15969;DHT22;8085;53.472;9.794;2023-09-19T14:19:34;20.60;56.50
15969;DHT22;8085;53.472;9.794;2023-09-19T14:22:02;20.60;55.60
15969;DHT22;8085;53.472;9.794;2023-09-19T14:24:34;20.60;55.20
15969;DHT22;8085;53.472;9.794;2023-09-19T14:27:01;20.50;55.70
15969;DHT22;8085;53.472;9.794;2023-09-19T14:29:30;20.30;56.80
15969;DHT22;8085;53.472;9.794;2023-09-19T14:31:57;20.30;56.60
15969;DHT22;8085;53.472;9.794;2023-09-19T14:34:24;20.30;57.40
15969;DHT22;8085;53.472;9.794;2023-09-19T14:36:50;20.20;57.80
15969;DHT22;8085;53.472;9.794;2023-09-19T14:39:20;20.20;58.10
15969;DHT22;8085;53.472;9.794;2023-09-19T14:41:48;20.20;58.50
15969;DHT22;8085;53.472;9.794;2023-09-19T14:44:15;20.10;58.80
15969;DHT22;8085;53.472;9.794;2023-09-19T14:46:42;20.00;58.60
15969;DHT22;8085;53.472;9.794;2023-09-19T14:49:10;20.00;59.60
15969;DHT22;8085;53.472;9.794;2023-09-19T14:51:38;20.00;59.60
15969;DHT22;8085;53.472;9.794;2023-09-19T14:54:06;20.00;59.80
15969;DHT22;8085;53.472;9.794;2023-09-19T14:56:34;20.00;60.50
15969;DHT22;8085;53.472;9.794;2023-09-19T14:59:02;20.00;60.10
15969;DHT22;8085;53.472;9.794;2023-09-19T15:01:29;19.90;59.60
15969;DHT22;8085;53.472;9.794;2023-09-19T15:03:57;19.90;59.80
15969;DHT22;8085;53.472;9.794;2023-09-19T15:06:26;19.80;59.90
15969;DHT22;8085;53.472;9.794;2023-09-19T15:08:53;19.80;61.10
15969;DHT22;8085;53.472;9.794;2023-09-19T15:11:20;19.80;61.30
15969;DHT22;8085;53.472;9.794;2023-09-19T15:13:50;19.70;61.80
15969;DHT22;8085;53.472;9.794;2023-09-19T15:16:19;19.70;61.90
15969;DHT22;8085;53.472;9.794;2023-09-19T15:18:46;19.70;62.10
15969;DHT22;8085;53.472;9.794;2023-09-19T15:21:14;19.50;62.30
15969;DHT22;8085;53.472;9.794;2023-09-19T15:23:42;19.70;61.80
15969;DHT22;8085;53.472;9.794;2023-09-19T15:26:12;19.60;61.80
15969;DHT22;8085;53.472;9.794;2023-09-19T15:28:39;19.60;62.50
15969;DHT22;8085;53.472;9.794;2023-09-19T15:31:08;19.60;62.30
15969;DHT22;8085;53.472;9.794;2023-09-19T15:33:37;19.60;61.90
15969;DHT22;8085;53.472;9.794;2023-09-19T15:36:05;19.60;62.40
15969;DHT22;8085;53.472;9.794;2023-09-19T15:38:57;19.60;62.40
15969;DHT22;8085;53.472;9.794;2023-09-19T15:41:24;19.60;63.30
15969;DHT22;8085;53.472;9.794;2023-09-19T15:43:52;19.60;62.80
15969;DHT22;8085;53.472;9.794;2023-09-19T15:46:19;19.50;62.70
15969;DHT22;8085;53.472;9.794;2023-09-19T15:48:48;19.50;62.80
15969;DHT22;8085;53.472;9.794;2023-09-19T15:51:16;19.50;62.90
15969;DHT22;8085;53.472;9.794;2023-09-19T15:53:44;19.50;63.40
15969;DHT22;8085;53.472;9.794;2023-09-19T15:56:12;19.50;63.40
15969;DHT22;8085;53.472;9.794;2023-09-19T15:58:40;19.40;63.80
15969;DHT22;8085;53.472;9.794;2023-09-19T16:01:07;19.40;63.00
15969;DHT22;8085;53.472;9.794;2023-09-19T16:03:36;19.40;63.00
15969;DHT22;8085;53.472;9.794;2023-09-19T16:06:09;19.40;62.20
15969;DHT22;8085;53.472;9.794;2023-09-19T16:08:39;19.30;62.40
15969;DHT22;8085;53.472;9.794;2023-09-19T16:11:06;19.40;62.70